sensor_id;sensor_type;location;lat;lon;timestamp;P1;durP1;ratioP1;P2;durP2;ratioP2
66761;SDS011;53672;48.176;16.338;2022-12-08T13:11:58;23.65;;;11.82;;
66761;SDS011;53672;48.176;16.338;2022-12-08T13:17:04;22.60;;;11.77;;
66761;SDS011;53672;48.176;16.338;2022-12-08T13:27:52;23.95;;;10.93;;
66761;SDS011;53672;48.176;16.338;2022-12-08T13:32:54;23.93;;;10.93;;
66761;SDS011;53672;48.176;16.338;2022-12-08T13:37:56;25.45;;;11.80;;
66761;SDS011;53672;48.176;16.338;2022-12-08T13:43:02;28.83;;;12.67;;
66761;SDS011;53672;48.176;16.338;2022-12-08T13:48:09;25.30;;;10.55;;
66761;SDS011;53672;48.176;16.338;2022-12-08T13:53:17;19.35;;;8.82;;
66761;SDS011;53672;48.176;16.338;2022-12-08T13:58:25;26.47;;;11.47;;
66761;SDS011;53672;48.176;16.338;2022-12-08T14:03:27;23.60;;;10.90;;
66761;SDS011;53672;48.176;16.338;2022-12-08T14:08:28;27.20;;;11.47;;
66761;SDS011;53672;48.176;16.338;2022-12-08T14:13:32;28.80;;;12.15;;
66761;SDS011;53672;48.176;16.338;2022-12-08T14:18:33;24.00;;;9.73;;
66761;SDS011;53672;48.176;16.338;2022-12-08T14:23:34;28.30;;;11.83;;
66761;SDS011;53672;48.176;16.338;2022-12-08T14:28:36;26.35;;;11.80;;
66761;SDS011;53672;48.176;16.338;2022-12-08T14:33:36;26.73;;;12.30;;
66761;SDS011;53672;48.176;16.338;2022-12-08T14:38:37;28.80;;;13.93;;
66761;SDS011;53672;48.176;16.338;2022-12-08T14:43:39;27.53;;;12.77;;
66761;SDS011;53672;48.176;16.338;2022-12-08T14:48:40;26.38;;;10.52;;
66761;SDS011;53672;48.176;16.338;2022-12-08T14:53:41;27.20;;;12.67;;
66761;SDS011;53672;48.176;16.338;2022-12-08T14:58:45;28.15;;;12.38;;
66761;SDS011;53672;48.176;16.338;2022-12-08T15:03:47;27.20;;;11.63;;
66761;SDS011;53672;48.176;16.338;2022-12-08T15:08:49;28.10;;;12.23;;
66761;SDS011;53672;48.176;16.338;2022-12-08T15:13:52;30.33;;;13.32;;
66761;SDS011;53672;48.176;16.338;2022-12-08T15:19:00;30.30;;;11.90;;
66761;SDS011;53672;48.176;16.338;2022-12-08T15:24:03;29.33;;;13.00;;
66761;SDS011;53672;48.176;16.338;2022-12-08T15:29:10;29.23;;;13.30;;
66761;SDS011;53672;48.176;16.338;2022-12-08T15:34:13;33.58;;;14.55;;
66761;SDS011;53672;48.176;16.338;2022-12-08T15:39:19;28.80;;;10.20;;
66761;SDS011;53672;48.176;16.338;2022-12-08T15:44:28;27.93;;;11.80;;
66761;SDS011;53672;48.176;16.338;2022-12-08T15:49:29;31.73;;;13.80;;
66761;SDS011;53672;48.176;16.338;2022-12-08T15:54:30;33.00;;;13.47;;
66761;SDS011;53672;48.176;16.338;2022-12-08T15:59:31;31.77;;;14.23;;
66761;SDS011;53672;48.176;16.338;2022-12-08T16:04:32;36.72;;;14.95;;
66761;SDS011;53672;48.176;16.338;2022-12-08T16:09:34;38.37;;;15.03;;
66761;SDS011;53672;48.176;16.338;2022-12-08T16:14:38;34.13;;;14.02;;
66761;SDS011;53672;48.176;16.338;2022-12-08T16:19:39;40.03;;;15.83;;
66761;SDS011;53672;48.176;16.338;2022-12-08T16:24:40;38.30;;;15.63;;
66761;SDS011;53672;48.176;16.338;2022-12-08T16:29:42;38.07;;;15.43;;
66761;SDS011;53672;48.176;16.338;2022-12-08T16:34:42;39.30;;;15.75;;
66761;SDS011;53672;48.176;16.338;2022-12-08T16:39:43;34.90;;;15.18;;
66761;SDS011;53672;48.176;16.338;2022-12-08T16:44:45;41.10;;;15.27;;
66761;SDS011;53672;48.176;16.338;2022-12-08T16:49:46;38.40;;;15.77;;
66761;SDS011;53672;48.176;16.338;2022-12-08T16:54:46;38.10;;;14.43;;
66761;SDS011;53672;48.176;16.338;2022-12-08T16:59:48;36.77;;;15.10;;
66761;SDS011;53672;48.176;16.338;2022-12-08T17:04:49;34.97;;;14.75;;
66761;SDS011;53672;48.176;16.338;2022-12-08T17:09:50;31.90;;;13.97;;
66761;SDS011;53672;48.176;16.338;2022-12-08T17:14:52;37.83;;;15.90;;
66761;SDS011;53672;48.176;16.338;2022-12-08T17:19:52;37.15;;;15.90;;
66761;SDS011;53672;48.176;16.338;2022-12-08T17:24:53;37.73;;;15.60;;
66761;SDS011;53672;48.176;16.338;2022-12-08T17:29:55;35.58;;;12.75;;
66761;SDS011;53672;48.176;16.338;2022-12-08T17:34:55;40.80;;;16.08;;
66761;SDS011;53672;48.176;16.338;2022-12-08T17:39:56;39.87;;;16.80;;
66761;SDS011;53672;48.176;16.338;2022-12-08T17:44:58;44.00;;;16.73;;
66761;SDS011;53672;48.176;16.338;2022-12-08T17:49:59;46.47;;;17.60;;
66761;SDS011;53672;48.176;16.338;2022-12-08T17:54:59;41.45;;;16.92;;
66761;SDS011;53672;48.176;16.338;2022-12-08T18:00:02;38.57;;;15.70;;
66761;SDS011;53672;48.176;16.338;2022-12-08T18:05:03;43.83;;;15.90;;
66761;SDS011;53672;48.176;16.338;2022-12-08T18:10:05;46.97;;;18.00;;
66761;SDS011;53672;48.176;16.338;2022-12-08T18:15:10;48.60;;;18.98;;
66761;SDS011;53672;48.176;16.338;2022-12-08T18:20:14;48.65;;;18.52;;
66761;SDS011;53672;48.176;16.338;2022-12-08T18:25:15;81.33;;;36.10;;
66761;SDS011;53672;48.176;16.338;2022-12-08T18:30:17;62.97;;;28.58;;
66761;SDS011;53672;48.176;16.338;2022-12-08T18:35:18;50.90;;;18.63;;
66761;SDS011;53672;48.176;16.338;2022-12-08T18:40:19;48.03;;;20.55;;
66761;SDS011;53672;48.176;16.338;2022-12-08T18:45:21;54.80;;;20.73;;
66761;SDS011;53672;48.176;16.338;2022-12-08T18:50:22;50.03;;;17.85;;
66761;SDS011;53672;48.176;16.338;2022-12-08T18:55:23;46.37;;;18.07;;
66761;SDS011;53672;48.176;16.338;2022-12-08T19:00:25;49.65;;;18.88;;
66761;SDS011;53672;48.176;16.338;2022-12-08T19:05:26;47.60;;;18.97;;
66761;SDS011;53672;48.176;16.338;2022-12-08T19:10:27;52.83;;;18.65;;
66761;SDS011;53672;48.176;16.338;2022-12-08T19:15:29;45.10;;;17.70;;
66761;SDS011;53672;48.176;16.338;2022-12-08T19:20:30;51.15;;;19.80;;
66761;SDS011;53672;48.176;16.338;2022-12-08T19:25:31;78.83;;;42.33;;
66761;SDS011;53672;48.176;16.338;2022-12-08T19:30:33;63.33;;;28.25;;
66761;SDS011;53672;48.176;16.338;2022-12-08T19:35:34;55.03;;;19.42;;
66761;SDS011;53672;48.176;16.338;2022-12-08T19:40:39;52.60;;;18.92;;
66761;SDS011;53672;48.176;16.338;2022-12-08T19:45:45;57.40;;;21.60;;
66761;SDS011;53672;48.176;16.338;2022-12-08T19:50:46;47.53;;;18.55;;
66761;SDS011;53672;48.176;16.338;2022-12-08T19:55:47;46.95;;;18.83;;
66761;SDS011;53672;48.176;16.338;2022-12-08T20:00:51;54.28;;;19.77;;
66761;SDS011;53672;48.176;16.338;2022-12-08T20:05:52;48.53;;;18.42;;
66761;SDS011;53672;48.176;16.338;2022-12-08T20:10:53;45.00;;;19.93;;
66761;SDS011;53672;48.176;16.338;2022-12-08T20:15:55;43.88;;;17.55;;
66761;SDS011;53672;48.176;16.338;2022-12-08T20:20:57;51.65;;;21.63;;
66761;SDS011;53672;48.176;16.338;2022-12-08T20:25:59;50.58;;;22.33;;
66761;SDS011;53672;48.176;16.338;2022-12-08T20:31:06;44.58;;;16.50;;
66761;SDS011;53672;48.176;16.338;2022-12-08T20:36:10;43.70;;;17.20;;
66761;SDS011;53672;48.176;16.338;2022-12-08T20:41:14;49.45;;;19.40;;
66761;SDS011;53672;48.176;16.338;2022-12-08T20:46:17;45.53;;;17.10;;
66761;SDS011;53672;48.176;16.338;2022-12-08T20:51:19;45.50;;;18.58;;
66761;SDS011;53672;48.176;16.338;2022-12-08T20:56:21;56.70;;;24.10;;
66761;SDS011;53672;48.176;16.338;2022-12-08T21:01:25;41.67;;;16.17;;
66761;SDS011;53672;48.176;16.338;2022-12-08T21:06:26;45.60;;;20.55;;
66761;SDS011;53672;48.176;16.338;2022-12-08T21:11:27;60.05;;;28.73;;
66761;SDS011;53672;48.176;16.338;2022-12-08T21:16:29;45.67;;;17.92;;
66761;SDS011;53672;48.176;16.338;2022-12-08T21:21:30;39.47;;;16.45;;
66761;SDS011;53672;48.176;16.338;2022-12-08T21:26:31;39.58;;;15.70;;
66761;SDS011;53672;48.176;16.338;2022-12-08T21:31:33;38.50;;;15.80;;
66761;SDS011;53672;48.176;16.338;2022-12-08T21:36:33;35.20;;;14.45;;
66761;SDS011;53672;48.176;16.338;2022-12-08T21:41:33;37.33;;;14.73;;
66761;SDS011;53672;48.176;16.338;2022-12-08T21:46:35;35.67;;;14.70;;
66761;SDS011;53672;48.176;16.338;2022-12-08T21:51:36;38.60;;;17.40;;
66761;SDS011;53672;48.176;16.338;2022-12-08T21:56:37;39.97;;;15.13;;
66761;SDS011;53672;48.176;16.338;2022-12-08T22:01:39;42.17;;;16.77;;
66761;SDS011;53672;48.176;16.338;2022-12-08T22:06:39;37.40;;;17.57;;
66761;SDS011;53672;48.176;16.338;2022-12-08T22:11:40;36.50;;;15.50;;
66761;SDS011;53672;48.176;16.338;2022-12-08T22:16:42;37.15;;;14.40;;
66761;SDS011;53672;48.176;16.338;2022-12-08T22:21:43;35.75;;;14.65;;
66761;SDS011;53672;48.176;16.338;2022-12-08T22:26:43;32.00;;;13.17;;
66761;SDS011;53672;48.176;16.338;2022-12-08T22:31:45;36.07;;;15.10;;
66761;SDS011;53672;48.176;16.338;2022-12-08T22:36:46;40.05;;;16.27;;
66761;SDS011;53672;48.176;16.338;2022-12-08T22:41:46;36.97;;;13.97;;
66761;SDS011;53672;48.176;16.338;2022-12-08T22:46:48;35.17;;;14.10;;
66761;SDS011;53672;48.176;16.338;2022-12-08T22:51:49;35.10;;;14.73;;
66761;SDS011;53672;48.176;16.338;2022-12-08T22:56:49;36.28;;;14.10;;
66761;SDS011;53672;48.176;16.338;2022-12-08T23:01:51;36.33;;;14.37;;
66761;SDS011;53672;48.176;16.338;2022-12-08T23:06:51;33.63;;;13.03;;
66761;SDS011;53672;48.176;16.338;2022-12-08T23:11:52;32.13;;;12.70;;
66761;SDS011;53672;48.176;16.338;2022-12-08T23:16:55;29.38;;;11.80;;
66761;SDS011;53672;48.176;16.338;2022-12-08T23:21:55;29.05;;;13.85;;
66761;SDS011;53672;48.176;16.338;2022-12-08T23:26:56;29.33;;;12.63;;
66761;SDS011;53672;48.176;16.338;2022-12-08T23:31:57;29.90;;;12.33;;
66761;SDS011;53672;48.176;16.338;2022-12-08T23:36:58;30.48;;;13.07;;
66761;SDS011;53672;48.176;16.338;2022-12-08T23:41:58;32.72;;;13.80;;
66761;SDS011;53672;48.176;16.338;2022-12-08T23:47:00;33.20;;;12.97;;
66761;SDS011;53672;48.176;16.338;2022-12-08T23:52:01;34.43;;;13.77;;
66761;SDS011;53672;48.176;16.338;2022-12-08T23:57:01;32.10;;;13.32;;
